Aérodrome :
LOGIN :

S'inscrire | Disclaimer

   EN    FR    IT 

 










Légende :    VFR   VFR Marginal   IFR   IFR Intensif   IFR Très Intensif
Visi : 
Plafond : 
>= 8 km
>= 3000ft
5 à 8 km
1000 à 3000 ft
1500m à 5 km
500 à 1000 ft
800 à 1500m
200 à 500 ft
< 800m
< 200 ft
Symboles :   Orages  Brouillard  Fortes neiges  Fortes précipitations  Vent > 20 kt
SIGMETs :   Divers  Orages  Givrage  Turbulence  Onde Orograph.  Cendres Volcan.







- Altitude de l'aérodrome : 3 ft
- Code IATA : LWR


EHLW - Leuuwarden Air Base

DERNIER METAR :
  • 161655Z AUTO 16007KT 110V200 9999 OVC180 21/13 Q1019 BLU

METARs EXPIRÉS :
  • 161625Z AUTO 18007KT 130V210 9999 OVC160 22/14 Q1019 BLU
  • 161555Z AUTO 15007KT 110V180 9999 OVC140 22/13 Q1019 BLU
  • 161525Z AUTO 18008KT 100V220 9999 OVC170 22/13 Q1019 BLU
  • 161455Z AUTO 17007KT 120V220 9999 OVC190 22/12 Q1020 BLU
  • 161425Z AUTO 18007KT 130V220 9999 OVC200 23/13 Q1020 BLU

TAF TAF EHLW
Valide du 16 à 17h jusqu'au 17 à 05h UTC


161647Z 1617/1705 18007KT CAVOK
BECMG 1617/1619 14005KT
PROB30
TEMPO 1701/1705 4000 MIFG BR
Pas de NOTAMs connus pour ce terrain.



MET'MAP, la Météo Aéronautique d'un coup d'oeil ! - Copyright ORBIFLY Décembre 2007 - Disclaimer

ORBIFLY MET'MAP TEAM :

Programmation & Développement : Alexandra Zaïnal
Conception & Développement : Baudouin d'Aumeries
Co-Programmation & Développement : Marc-Olivier Méhu
Soutien technique & logistique : Manuel Goepfert

Contact : metmap@orbifly.com




SOURCES & CREDITS :

   NOAA